Weather at Appleton International Airport

Public forecast

Using degrees Fahrenheit for public forecast. Weather courtesy of forecast.io.

Current aviation weather report (METAR) for Appleton International Airport

2024/05/21 15:45 (retrieved 53 minutes ago)

KATW 211545Z 10003KT 10SM BKN045 19/13 A2984

Aviation forecast (TAF) for Appleton International Airport

2024/05/21 12:39 (retrieved 4 hours ago)

TAF KATW 211136Z 2112/2212 VRB03KT 4SM BR BKN008 TEMPO 2112/2113 2SM BR BKN003 FM211300 VRB04KT 6SM BR BKN008 FM211500 12009KT P6SM VCSH SCT007 BKN020 TEMPO 2118/2121 -TSRA BKN020CB FM212100 12011G18KT P6SM VCSH SCT010 BKN050 WS020/18045KT TEMPO 2201/2204 2SM TSRA BKN012CB FM220600 22018G28KT P6SM BKN018 WS020/23045KT